Time;durP1;ratioP1;P1;durP2;ratioP2;P2;SDS_P1;SDS_P2;PMS_P1;PMS_P2;Temp;Humidity;BMP_temperature;BMP_pressure;BME280_temperature;BME280_humidity;BME280_pressure;Samples;Min_cycle;Max_cycle;Signal;HPM_P1;HPM_P2
2023/08/10 00:01:38;;;;;;;6.80;3.60;;;15.50;14.50;;;;;;7371443;19;20024;-70
2023/08/10 00:04:08;;;;;;;4.25;3.50;;;15.40;17.10;;;;;;7372543;19;20013;-70
2023/08/10 00:06:41;;;;;;;4.68;4.07;;;15.40;18.70;;;;;;7372822;19;20030;-68
2023/08/10 00:09:11;;;;;;;4.70;3.75;;;15.40;19.40;;;;;;7371982;19;20483;-68
2023/08/10 00:11:42;;;;;;;4.53;3.38;;;15.40;20.10;;;;;;7373411;19;20035;-70
2023/08/10 00:14:12;;;;;;;5.38;3.88;;;15.40;19.70;;;;;;7372764;19;20014;-70
2023/08/10 00:16:42;;;;;;;6.22;3.70;;;15.30;21.10;;;;;;7373116;19;20089;-70
2023/08/10 00:19:12;;;;;;;5.00;4.50;;;15.30;22.40;;;;;;7374220;19;20034;-70
2023/08/10 00:21:44;;;;;;;5.72;4.60;;;15.30;23.10;;;;;;7370918;19;20010;-70
2023/08/10 00:24:14;;;;;;;6.88;4.85;;;15.30;24.90;;;;;;7372594;19;20017;-70
2023/08/10 00:26:44;;;;;;;5.38;4.45;;;15.30;25.80;;;;;;7384145;19;20022;-70
2023/08/10 00:29:14;;;;;;;4.78;4.28;;;15.20;27.80;;;;;;7376825;19;20437;-70
2023/08/10 00:31:44;;;;;;;7.30;5.10;;;15.20;29.60;;;;;;7372443;19;20017;-70
2023/08/10 00:34:14;;;;;;;6.68;4.35;;;15.10;30.20;;;;;;7370237;19;20443;-70
2023/08/10 00:36:47;;;;;;;6.45;4.65;;;15.10;30.70;;;;;;7371840;19;20494;-70
2023/08/10 00:39:17;;;;;;;7.50;3.90;;;15.10;30.30;;;;;;7371194;19;20049;-70
2023/08/10 00:41:47;;;;;;;5.45;4.07;;;15.10;28.80;;;;;;7370039;19;20054;-70
2023/08/10 00:44:17;;;;;;;6.47;4.03;;;15.00;26.60;;;;;;7370581;19;20102;-70
2023/08/10 00:46:49;;;;;;;4.82;3.90;;;15.00;28.10;;;;;;7370999;19;20502;-71
2023/08/10 00:49:19;;;;;;;5.65;3.72;;;14.90;27.20;;;;;;7379007;19;20083;-70
2023/08/10 00:51:52;;;;;;;5.75;3.97;;;14.80;26.70;;;;;;7380519;19;20006;-71
2023/08/10 00:54:22;;;;;;;5.40;4.03;;;14.80;26.20;;;;;;7371733;19;20608;-70
2023/08/10 00:56:52;;;;;;;5.80;4.50;;;14.80;26.30;;;;;;7371516;19;20036;-70
2023/08/10 00:59:22;;;;;;;4.85;4.20;;;14.80;25.00;;;;;;7371604;19;20017;-70
2023/08/10 01:01:52;;;;;;;5.78;4.40;;;14.70;24.50;;;;;;7371113;19;20404;-71
2023/08/10 01:04:22;;;;;;;5.35;4.22;;;14.70;24.80;;;;;;7371485;19;20010;-70
2023/08/10 01:07:03;;;;;;;5.55;4.10;;;14.70;25.30;;;;;;7370562;19;20006;-70
2023/08/10 01:09:39;;;;;;;5.85;4.35;;;14.60;25.40;;;;;;7369450;19;20081;-70
2023/08/10 01:12:19;;;;;;;5.05;4.22;;;14.60;25.20;;;;;;7364509;19;20099;-69
2023/08/10 01:14:56;;;;;;;5.30;4.25;;;14.60;25.80;;;;;;7370412;19;20052;-69
2023/08/10 01:17:32;;;;;;;4.88;4.20;;;14.50;26.30;;;;;;7370738;19;20077;-70
2023/08/10 01:20:04;;;;;;;5.13;4.10;;;14.40;28.20;;;;;;7370459;19;20006;-69
2023/08/10 01:22:51;;;;;;;5.50;3.70;;;14.40;29.40;;;;;;7367144;19;20015;-70
2023/08/10 01:25:25;;;;;;;5.40;4.05;;;14.30;33.10;;;;;;7387940;19;20014;-70
2023/08/10 01:27:57;;;;;;;5.80;4.43;;;14.30;33.50;;;;;;7380474;19;20086;-69
2023/08/10 01:30:27;;;;;;;5.28;4.63;;;14.20;35.80;;;;;;7376229;19;20039;-71
2023/08/10 01:32:57;;;;;;;4.38;3.97;;;14.20;38.10;;;;;;7376338;19;20011;-69
2023/08/10 01:35:27;;;;;;;4.90;4.22;;;14.10;40.10;;;;;;7377779;19;20021;-71
2023/08/10 01:37:57;;;;;;;6.78;4.90;;;14.10;42.90;;;;;;7375482;19;20036;-70
2023/08/10 01:40:30;;;;;;;7.00;4.13;;;14.10;44.50;;;;;;7375838;19;20359;-70
2023/08/10 01:43:02;;;;;;;6.15;4.43;;;14.10;45.10;;;;;;7381278;19;20006;-71
2023/08/10 01:45:32;;;;;;;10.65;4.38;;;14.10;45.50;;;;;;7389179;19;20032;-71
2023/08/10 01:48:06;;;;;;;5.30;3.40;;;14.10;45.40;;;;;;7381961;19;20027;-69
2023/08/10 01:50:39;;;;;;;4.38;3.65;;;14.00;46.20;;;;;;7375309;19;20470;-69
2023/08/10 01:53:14;;;;;;;4.45;3.40;;;13.90;45.40;;;;;;7381946;19;20074;-69
2023/08/10 01:55:47;;;;;;;4.45;3.60;;;14.10;42.40;;;;;;7388315;19;20024;-70
2023/08/10 01:58:17;;;;;;;4.43;3.78;;;14.00;37.80;;;;;;7377934;19;20094;-70
2023/08/10 02:00:47;;;;;;;7.18;3.75;;;14.10;33.20;;;;;;7376304;19;20010;-70
2023/08/10 02:03:17;;;;;;;4.47;3.28;;;14.00;29.50;;;;;;7376114;19;20340;-70
2023/08/10 02:05:50;;;;;;;5.45;3.63;;;14.00;27.80;;;;;;7376897;19;20026;-70
2023/08/10 02:08:20;;;;;;;3.92;3.47;;;13.90;26.90;;;;;;7376571;19;20002;-69
2023/08/10 02:10:53;;;;;;;4.97;3.53;;;14.00;26.90;;;;;;7375867;19;20070;-69
2023/08/10 02:13:23;;;;;;;4.90;3.53;;;14.00;25.50;;;;;;7376900;19;20033;-68
2023/08/10 02:15:53;;;;;;;4.97;4.00;;;14.00;25.70;;;;;;7377131;19;20027;-70
2023/08/10 02:18:23;;;;;;;5.40;4.22;;;14.00;24.70;;;;;;7375886;19;20047;-69
2023/08/10 02:20:54;;;;;;;5.22;3.95;;;13.90;25.00;;;;;;7376106;19;20030;-70
2023/08/10 02:23:24;;;;;;;5.72;4.10;;;13.90;25.80;;;;;;7374547;19;20043;-70
2023/08/10 02:25:57;;;;;;;5.60;4.03;;;13.80;27.50;;;;;;7374360;19;20055;-70
2023/08/10 02:28:26;;;;;;;5.65;3.97;;;13.80;29.20;;;;;;7352869;19;20021;-70
2023/08/10 02:30:56;;;;;;;4.30;3.90;;;13.80;29.10;;;;;;7376865;19;20018;-71
2023/08/10 02:33:26;;;;;;;5.07;4.38;;;13.80;28.90;;;;;;7375799;19;20012;-70
2023/08/10 02:35:56;;;;;;;9.13;4.72;;;13.80;28.60;;;;;;7372774;19;20475;-70
2023/08/10 02:38:26;;;;;;;6.03;4.30;;;13.80;29.30;;;;;;7375024;19;20046;-70
2023/08/10 02:40:59;;;;;;;5.47;4.00;;;13.70;29.30;;;;;;7375635;19;20354;-70
2023/08/10 02:43:29;;;;;;;5.43;4.25;;;13.70;29.90;;;;;;7375835;19;20063;-70
2023/08/10 02:45:59;;;;;;;7.25;4.40;;;13.70;31.70;;;;;;7377521;19;20074;-70
2023/08/10 02:48:29;;;;;;;5.20;4.22;;;13.60;31.60;;;;;;7376846;19;20010;-70
2023/08/10 02:50:59;;;;;;;4.95;3.92;;;13.60;32.10;;;;;;7376473;19;20341;-70
2023/08/10 02:53:29;;;;;;;6.50;4.50;;;13.50;34.10;;;;;;7374575;19;20081;-70
2023/08/10 02:56:01;;;;;;;5.18;3.85;;;13.40;37.60;;;;;;7376054;19;20014;-69
2023/08/10 02:58:32;;;;;;;6.45;3.85;;;13.40;44.20;;;;;;7376889;19;20483;-71
2023/08/10 03:01:02;;;;;;;4.82;4.00;;;13.30;45.70;;;;;;7375503;19;20039;-69
2023/08/10 03:03:32;;;;;;;4.75;4.35;;;13.20;47.90;;;;;;7374931;19;20021;-70
2023/08/10 03:06:02;;;;;;;6.38;4.32;;;13.20;52.20;;;;;;7375066;19;20852;-70
2023/08/10 03:08:32;;;;;;;7.13;4.65;;;13.20;52.90;;;;;;7376677;19;20074;-70
2023/08/10 03:11:05;;;;;;;5.68;5.07;;;13.20;57.90;;;;;;7375348;19;20122;-70
2023/08/10 03:13:35;;;;;;;5.53;4.97;;;13.20;59.40;;;;;;7373756;19;20041;-71
2023/08/10 03:16:05;;;;;;;6.75;4.97;;;13.20;60.80;;;;;;7374893;19;20507;-70
2023/08/10 03:18:34;;;;;;;6.15;4.38;;;13.20;60.40;;;;;;7376085;19;20455;-71
2023/08/10 03:21:04;;;;;;;6.05;5.00;;;13.20;60.40;;;;;;7381440;19;20021;-70
2023/08/10 03:23:34;;;;;;;5.95;4.93;;;13.10;59.00;;;;;;7384443;19;20078;-70
2023/08/10 03:26:07;;;;;;;4.93;4.43;;;13.20;62.50;;;;;;7371874;19;20565;-70
2023/08/10 03:28:37;;;;;;;15.25;4.60;;;13.20;63.20;;;;;;7372566;19;20040;-71
2023/08/10 03:31:07;;;;;;;6.68;5.00;;;13.10;62.90;;;;;;7371705;19;20015;-69
2023/08/10 03:33:37;;;;;;;5.55;4.47;;;13.10;63.20;;;;;;7372618;19;20014;-70
2023/08/10 03:36:08;;;;;;;7.95;4.78;;;13.20;64.90;;;;;;7372322;19;20085;-70
2023/08/10 03:38:38;;;;;;;5.20;4.70;;;13.20;65.00;;;;;;7372384;19;20241;-70
2023/08/10 03:41:10;;;;;;;6.55;4.40;;;13.20;65.60;;;;;;7373307;19;20006;-71
2023/08/10 03:43:40;;;;;;;6.25;4.38;;;13.30;63.70;;;;;;7382791;19;20018;-71
2023/08/10 03:46:10;;;;;;;7.18;5.10;;;13.20;61.50;;;;;;7383271;19;20121;-70
2023/08/10 03:48:40;;;;;;;6.30;4.40;;;13.10;59.70;;;;;;7371739;19;20014;-70
2023/08/10 03:51:10;;;;;;;5.70;5.07;;;13.10;61.50;;;;;;7373430;19;20015;-70
2023/08/10 03:53:40;;;;;;;5.55;4.55;;;13.10;61.90;;;;;;7372638;19;20021;-70
2023/08/10 03:56:13;;;;;;;5.40;4.65;;;13.10;60.90;;;;;;7371395;19;20123;-68
2023/08/10 03:58:43;;;;;;;6.85;4.47;;;13.10;60.40;;;;;;7369721;19;20027;-70
2023/08/10 04:01:13;;;;;;;6.75;5.32;;;13.20;64.50;;;;;;7371126;19;20090;-71
2023/08/10 04:03:43;;;;;;;6.53;4.38;;;13.20;64.10;;;;;;7371924;19;20031;-68
2023/08/10 04:06:13;;;;;;;6.60;4.90;;;13.20;62.60;;;;;;7371999;19;20044;-69
2023/08/10 04:08:44;;;;;;;7.60;4.75;;;13.30;62.20;;;;;;7372311;19;20018;-68
2023/08/10 04:11:17;;;;;;;7.93;4.85;;;13.40;60.40;;;;;;7372229;19;20031;-70
2023/08/10 04:13:47;;;;;;;5.72;4.45;;;13.40;57.30;;;;;;7372413;19;20011;-69
2023/08/10 04:16:17;;;;;;;5.68;4.22;;;13.40;56.90;;;;;;7372061;19;20034;-69
2023/08/10 04:18:47;;;;;;;4.95;4.45;;;13.40;55.40;;;;;;7371765;19;20014;-70
2023/08/10 04:21:18;;;;;;;6.13;4.20;;;13.40;56.10;;;;;;7371928;19;20353;-69
2023/08/10 04:23:48;;;;;;;6.10;4.53;;;13.50;54.60;;;;;;7371214;19;20078;-70
2023/08/10 04:26:20;;;;;;;4.90;4.35;;;13.50;50.20;;;;;;7371647;19;20014;-68
2023/08/10 04:28:50;;;;;;;4.10;3.70;;;13.60;48.70;;;;;;7371826;19;20007;-69
2023/08/10 04:31:20;;;;;;;5.47;4.30;;;13.60;47.70;;;;;;7370925;19;20015;-70
2023/08/10 04:33:50;;;;;;;5.10;4.05;;;14.00;41.30;;;;;;7370451;19;20467;-68
2023/08/10 04:36:21;;;;;;;4.90;3.92;;;14.20;26.00;;;;;;7370706;19;20509;-70
2023/08/10 04:38:51;;;;;;;6.90;4.30;;;14.00;23.50;;;;;;7370097;19;20014;-70
2023/08/10 04:41:24;;;;;;;5.03;3.95;;;13.90;25.20;;;;;;7380696;19;20010;-69
2023/08/10 04:43:54;;;;;;;4.38;3.92;;;14.90;14.80;;;;;;7386800;19;20031;-71
2023/08/10 04:46:24;;;;;;;4.18;3.50;;;16.10;1.00;;;;;;7389052;19;20189;-71
2023/08/10 04:48:54;;;;;;;3.95;3.55;;;16.80;1.00;;;;;;7388980;19;20015;-71
2023/08/10 04:51:24;;;;;;;4.88;3.42;;;16.50;1.00;;;;;;7382747;19;20022;-70
2023/08/10 04:53:54;;;;;;;4.40;3.30;;;15.20;1.00;;;;;;7379397;19;20755;-71
2023/08/10 04:56:27;;;;;;;3.45;3.05;;;14.90;1.00;;;;;;7371303;19;20007;-71
2023/08/10 04:58:57;;;;;;;4.80;3.40;;;14.60;1.00;;;;;;7372885;19;20038;-71
2023/08/10 05:01:27;;;;;;;3.80;3.15;;;16.00;1.00;;;;;;7374664;19;20010;-71
2023/08/10 05:03:56;;;;;;;6.38;3.90;;;17.30;1.00;;;;;;7378683;19;20006;-71
2023/08/10 05:06:26;;;;;;;6.47;3.10;;;18.00;1.00;;;;;;7378999;19;20508;-71
2023/08/10 05:08:56;;;;;;;3.47;2.92;;;18.70;1.00;;;;;;7377834;19;20025;-70
2023/08/10 05:11:29;;;;;;;3.60;2.83;;;18.80;1.00;;;;;;7378190;19;20011;-71
2023/08/10 05:13:59;;;;;;;3.45;3.15;;;17.90;1.00;;;;;;7377174;19;20028;-71
2023/08/10 05:16:29;;;;;;;5.72;3.22;;;16.40;1.00;;;;;;7376047;19;20086;-69
2023/08/10 05:18:59;;;;;;;6.57;3.00;;;17.60;1.00;;;;;;7375955;19;20021;-71
2023/08/10 05:21:29;;;;;;;4.70;2.63;;;18.80;1.00;;;;;;7376062;19;20498;-71
2023/08/10 05:23:59;;;;;;;3.38;2.90;;;19.20;1.00;;;;;;7377041;19;20493;-69
2023/08/10 05:26:31;;;;;;;4.72;2.75;;;19.30;1.00;;;;;;7376318;19;20021;-70
2023/08/10 05:29:01;;;;;;;4.30;2.58;;;19.10;1.00;;;;;;7376425;19;20003;-70
2023/08/10 05:31:31;;;;;;;4.07;2.70;;;19.80;1.00;;;;;;7376079;19;20082;-71
2023/08/10 05:34:01;;;;;;;5.60;3.03;;;20.90;1.00;;;;;;7376796;19;20024;-71
2023/08/10 05:36:31;;;;;;;2.92;2.67;;;21.00;1.00;;;;;;7377053;19;20015;-71
2023/08/10 05:39:01;;;;;;;4.63;3.08;;;20.50;1.00;;;;;;7375718;19;20024;-71
2023/08/10 05:41:33;;;;;;;4.18;2.72;;;21.00;1.00;;;;;;7377257;19;20010;-71
2023/08/10 05:44:03;;;;;;;2.95;2.65;;;20.80;1.00;;;;;;7376366;19;20275;-71
2023/08/10 05:46:33;;;;;;;4.72;2.90;;;21.10;1.00;;;;;;7376548;19;20085;-70
2023/08/10 05:49:03;;;;;;;3.30;2.55;;;21.40;1.00;;;;;;7375768;19;20030;-70
2023/08/10 05:51:33;;;;;;;4.05;2.72;;;21.80;1.00;;;;;;7375126;19;20010;-71
2023/08/10 05:54:03;;;;;;;3.50;2.70;;;19.90;1.00;;;;;;7375274;19;20093;-71
2023/08/10 05:56:35;;;;;;;4.40;2.83;;;18.00;1.00;;;;;;7376541;19;20090;-72
2023/08/10 05:59:06;;;;;;;6.18;3.10;;;17.30;1.00;;;;;;7375680;19;20672;-70
2023/08/10 06:01:35;;;;;;;6.82;3.30;;;17.20;1.00;;;;;;7374536;19;20018;-70
2023/08/10 06:04:06;;;;;;;3.75;3.10;;;16.80;1.00;;;;;;7375931;19;20006;-70
2023/08/10 06:06:36;;;;;;;4.40;2.67;;;16.50;1.00;;;;;;7374542;19;20056;-71
2023/08/10 06:09:07;;;;;;;5.63;3.28;;;16.30;1.00;;;;;;7375747;19;20379;-71
2023/08/10 06:11:39;;;;;;;3.78;3.00;;;16.40;1.00;;;;;;7373724;19;20029;-71
2023/08/10 06:14:30;;;;;;;4.28;3.22;;;16.10;1.00;;;;;;7372930;19;20022;-70
2023/08/10 06:17:00;;;;;;;5.22;3.50;;;16.10;1.00;;;;;;7375353;19;20027;-70
2023/08/10 06:19:30;;;;;;;6.63;3.42;;;16.10;1.00;;;;;;7375230;19;20081;-71
2023/08/10 06:22:00;;;;;;;4.03;3.30;;;16.20;1.00;;;;;;7374028;19;20035;-71
2023/08/10 06:24:30;;;;;;;3.33;3.03;;;16.10;1.00;;;;;;7374498;19;20143;-71
2023/08/10 06:27:02;;;;;;;5.22;3.60;;;16.20;1.00;;;;;;7374382;19;20112;-71
2023/08/10 06:29:32;;;;;;;6.05;3.72;;;16.20;1.00;;;;;;7374987;19;20106;-71
2023/08/10 06:32:02;;;;;;;5.63;3.85;;;16.40;1.00;;;;;;7374439;19;20014;-70
2023/08/10 06:34:33;;;;;;;3.95;3.30;;;16.20;1.00;;;;;;7374571;19;20028;-70
2023/08/10 06:37:02;;;;;;;4.07;3.50;;;16.30;1.00;;;;;;7374909;19;20487;-70
2023/08/10 06:39:32;;;;;;;4.57;3.42;;;16.40;1.00;;;;;;7374011;19;20013;-72
2023/08/10 06:42:05;;;;;;;6.90;3.80;;;16.40;1.00;;;;;;7374926;19;20014;-71
2023/08/10 06:44:36;;;;;;;4.60;3.70;;;16.50;1.00;;;;;;7375157;19;20006;-71
2023/08/10 06:47:06;;;;;;;6.57;3.53;;;16.30;1.00;;;;;;7375267;19;20041;-71
2023/08/10 06:49:36;;;;;;;4.30;3.78;;;16.30;1.00;;;;;;7375633;19;20485;-70
2023/08/10 06:52:06;;;;;;;4.88;3.42;;;16.20;1.00;;;;;;7374668;19;20025;-70
2023/08/10 06:54:37;;;;;;;5.68;4.00;;;16.40;1.00;;;;;;7374259;19;20041;-71
2023/08/10 06:57:10;;;;;;;5.13;3.83;;;16.60;1.00;;;;;;7374352;19;20011;-71
2023/08/10 06:59:40;;;;;;;4.30;3.90;;;16.50;1.00;;;;;;7373623;19;20014;-71
2023/08/10 07:02:13;;;;;;;6.05;3.70;;;16.50;1.00;;;;;;7372648;19;23166;-70
2023/08/10 07:04:45;;;;;;;5.22;3.58;;;16.60;1.00;;;;;;7372962;19;20500;-70
2023/08/10 07:07:16;;;;;;;4.28;3.78;;;16.70;1.00;;;;;;7373243;19;20471;-71
2023/08/10 07:09:46;;;;;;;8.93;4.55;;;16.80;1.00;;;;;;7372512;19;20027;-72
2023/08/10 07:12:19;;;;;;;7.40;4.32;;;16.90;1.00;;;;;;7373013;19;20030;-71
2023/08/10 07:14:49;;;;;;;6.43;4.53;;;17.00;1.00;;;;;;7373363;19;20015;-72
2023/08/10 07:17:19;;;;;;;5.68;4.10;;;17.00;1.00;;;;;;7373977;19;20471;-72
2023/08/10 07:19:49;;;;;;;8.80;4.55;;;17.00;1.00;;;;;;7373267;19;20014;-70
2023/08/10 07:22:19;;;;;;;5.55;4.18;;;17.10;1.00;;;;;;7371883;19;20213;-70
2023/08/10 07:24:50;;;;;;;7.57;4.03;;;17.20;1.00;;;;;;7373164;19;20024;-70
2023/08/10 07:27:23;;;;;;;5.72;4.35;;;17.20;1.00;;;;;;7373907;19;20087;-71
2023/08/10 07:29:53;;;;;;;4.70;4.20;;;17.00;1.00;;;;;;7374171;19;20082;-70
2023/08/10 07:32:23;;;;;;;8.55;4.32;;;17.30;1.00;;;;;;7374103;19;20020;-71
2023/08/10 07:34:53;;;;;;;6.75;4.22;;;17.50;1.00;;;;;;7373910;19;20082;-71
2023/08/10 07:37:23;;;;;;;5.70;3.95;;;17.60;1.00;;;;;;7375080;19;20069;-70
2023/08/10 07:39:53;;;;;;;6.10;4.30;;;17.40;1.00;;;;;;7372801;19;20126;-71
2023/08/10 07:42:26;;;;;;;6.38;3.60;;;17.60;1.00;;;;;;7372119;19;20015;-70
2023/08/10 07:44:56;;;;;;;5.75;4.38;;;17.70;1.00;;;;;;7372427;19;20018;-71
2023/08/10 07:47:26;;;;;;;7.30;4.20;;;17.90;1.00;;;;;;7372091;19;20014;-71
2023/08/10 07:49:56;;;;;;;9.65;8.43;;;18.00;1.00;;;;;;7372437;19;20054;-71
2023/08/10 07:52:26;;;;;;;6.80;5.47;;;18.20;1.00;;;;;;7373059;19;20015;-70
2023/08/10 07:54:57;;;;;;;5.05;4.50;;;18.50;1.00;;;;;;7372823;19;20007;-70
2023/08/10 07:57:29;;;;;;;6.50;3.95;;;18.40;1.00;;;;;;7371703;19;20015;-70
2023/08/10 08:00:04;;;;;;;4.82;3.85;;;18.60;1.00;;;;;;7371341;19;20086;-71
2023/08/10 08:02:35;;;;;;;5.38;3.67;;;18.70;1.00;;;;;;7372596;19;20007;-70
2023/08/10 08:05:06;;;;;;;6.70;3.60;;;19.00;1.00;;;;;;7371466;19;20018;-70
2023/08/10 08:07:36;;;;;;;9.57;5.00;;;19.00;1.00;;;;;;7372292;19;20029;-71
2023/08/10 08:10:06;;;;;;;5.03;4.50;;;18.70;1.00;;;;;;7372179;19;20019;-71
2023/08/10 08:12:39;;;;;;;5.47;4.25;;;18.60;1.00;;;;;;7372087;19;20356;-71
2023/08/10 08:15:10;;;;;;;5.93;4.07;;;19.40;1.00;;;;;;7371626;19;20107;-71
2023/08/10 08:18:22;;;;;;;5.43;3.72;;;19.90;1.00;;;;;;7371583;19;20014;-70
2023/08/10 08:20:52;;;;;;;4.90;3.97;;;19.90;1.00;;;;;;6859931;19;2004430;-70
2023/08/10 08:23:22;;;;;;;4.90;3.90;;;19.70;1.00;;;;;;7372422;19;20101;-70
2023/08/10 08:25:51;;;;;;;6.35;4.57;;;19.60;1.00;;;;;;7372317;19;20490;-70
2023/08/10 08:28:24;;;;;;;8.85;5.13;;;19.70;1.00;;;;;;7371114;19;20015;-72
2023/08/10 08:30:54;;;;;;;4.45;4.05;;;19.70;1.00;;;;;;7370911;19;20085;-69
2023/08/10 08:33:24;;;;;;;4.38;3.42;;;19.80;1.00;;;;;;7371573;19;20082;-70
2023/08/10 08:35:54;;;;;;;4.28;3.88;;;20.30;1.00;;;;;;7377128;19;20014;-70
2023/08/10 08:38:24;;;;;;;3.95;3.63;;;20.30;1.00;;;;;;7378878;19;20007;-70
2023/08/10 08:40:56;;;;;;;6.47;3.40;;;20.20;1.00;;;;;;7377302;19;20006;-71
2023/08/10 08:43:29;;;;;;;4.35;2.90;;;20.20;1.00;;;;;;7378814;19;20142;-70
2023/08/10 08:46:01;;;;;;;3.38;3.00;;;20.50;1.00;;;;;;7377096;19;20074;-71
2023/08/10 08:48:32;;;;;;;3.53;2.58;;;20.50;1.00;;;;;;7377834;19;20048;-70
2023/08/10 08:51:01;;;;;;;8.75;2.88;;;21.20;1.00;;;;;;7376742;19;20011;-70
2023/08/10 08:53:32;;;;;;;8.50;4.28;;;20.50;1.00;;;;;;7376882;19;20093;-71
2023/08/10 08:56:02;;;;;;;8.13;5.32;;;20.00;1.00;;;;;;7376791;19;20395;-70
2023/08/10 08:58:34;;;;;;;3.92;3.50;;;20.60;1.00;;;;;;7378024;19;20579;-70
2023/08/10 09:01:05;;;;;;;4.45;2.88;;;20.70;1.00;;;;;;7377106;19;20417;-71
2023/08/10 09:03:35;;;;;;;2.83;2.38;;;20.70;1.00;;;;;;7377287;19;20014;-71
2023/08/10 09:06:06;;;;;;;5.18;2.92;;;20.80;1.00;;;;;;7376740;19;20081;-70
2023/08/10 09:08:38;;;;;;;3.58;2.65;;;21.10;1.00;;;;;;7376753;19;20513;-71
2023/08/10 09:11:09;;;;;;;3.30;2.45;;;21.00;1.00;;;;;;7376806;19;20167;-71
2023/08/10 09:13:41;;;;;;;3.97;3.47;;;21.20;1.00;;;;;;7376654;19;20405;-69
2023/08/10 09:16:14;;;;;;;3.55;3.20;;;20.80;1.00;;;;;;7376596;19;20010;-70
2023/08/10 09:18:46;;;;;;;4.30;3.70;;;21.30;1.00;;;;;;7377281;19;20081;-71
2023/08/10 09:21:18;;;;;;;4.70;3.20;;;21.30;1.00;;;;;;7376811;19;20006;-72
2023/08/10 09:23:52;;;;;;;3.30;2.90;;;21.40;1.00;;;;;;7376375;19;20031;-71
2023/08/10 09:26:23;;;;;;;3.05;2.63;;;21.40;1.00;;;;;;7376553;19;20019;-71
2023/08/10 09:28:56;;;;;;;3.65;3.20;;;21.10;1.00;;;;;;7375754;19;20019;-72
2023/08/10 09:31:28;;;;;;;4.07;3.67;;;21.40;1.00;;;;;;7375920;19;20013;-72
2023/08/10 09:33:59;;;;;;;6.90;3.30;;;21.20;1.00;;;;;;7374829;19;20010;-71
2023/08/10 09:36:30;;;;;;;3.45;2.78;;;21.60;1.00;;;;;;7374219;19;20507;-71
2023/08/10 09:39:00;;;;;;;3.63;2.80;;;21.80;1.00;;;;;;7376038;19;20010;-71
2023/08/10 09:41:32;;;;;;;3.63;2.60;;;21.20;1.00;;;;;;7376056;19;20411;-70
2023/08/10 09:44:07;;;;;;;3.67;2.90;;;21.30;1.00;;;;;;7374793;19;20114;-71
2023/08/10 09:46:37;;;;;;;3.83;2.42;;;21.60;1.00;;;;;;7375767;19;20023;-71
2023/08/10 09:49:07;;;;;;;3.67;2.72;;;21.80;1.00;;;;;;7375742;19;20015;-71
2023/08/10 09:51:41;;;;;;;3.90;3.42;;;22.20;1.00;;;;;;7376202;19;20014;-71
2023/08/10 09:54:11;;;;;;;3.55;3.25;;;21.90;1.00;;;;;;7375447;19;20022;-71
2023/08/10 09:56:41;;;;;;;4.75;3.67;;;21.60;1.00;;;;;;7375524;19;20007;-72
2023/08/10 09:59:14;;;;;;;3.05;2.60;;;21.50;1.00;;;;;;7375955;19;20028;-71
2023/08/10 10:01:44;;;;;;;4.47;3.10;;;22.00;1.00;;;;;;7374292;19;20014;-72
2023/08/10 10:04:15;;;;;;;3.75;2.95;;;22.10;1.00;;;;;;7374786;19;20035;-71
2023/08/10 10:06:47;;;;;;;3.80;2.80;;;22.50;1.00;;;;;;7374325;19;20030;-72
2023/08/10 10:09:18;;;;;;;17.60;13.35;;;22.20;1.00;;;;;;7377015;19;20070;-70
2023/08/10 10:11:50;;;;;;;5.15;3.33;;;21.90;1.00;;;;;;7375922;19;20023;-70
2023/08/10 10:14:22;;;;;;;6.70;4.30;;;21.50;1.00;;;;;;7377308;19;20040;-71
2023/08/10 10:16:55;;;;;;;5.53;3.45;;;21.40;1.00;;;;;;7377276;19;20620;-71
2023/08/10 10:19:25;;;;;;;4.55;3.80;;;21.40;1.00;;;;;;7376251;19;20345;-70
2023/08/10 10:21:55;;;;;;;5.80;4.20;;;21.70;1.00;;;;;;7378073;19;20078;-71
2023/08/10 10:24:29;;;;;;;6.32;3.97;;;21.60;1.00;;;;;;7376250;19;20103;-71
2023/08/10 10:27:05;;;;;;;4.30;3.70;;;21.70;1.00;;;;;;7374892;19;20027;-71
2023/08/10 10:29:45;;;;;;;3.63;3.28;;;21.80;1.00;;;;;;7375923;19;20545;-71
2023/08/10 10:32:18;;;;;;;3.63;3.03;;;22.00;1.00;;;;;;7376438;19;20146;-70
2023/08/10 10:34:49;;;;;;;3.35;2.80;;;22.30;1.00;;;;;;7376710;19;20484;-71
2023/08/10 10:37:22;;;;;;;3.63;2.53;;;22.80;1.00;;;;;;7375989;19;20114;-71
2023/08/10 10:39:53;;;;;;;3.00;2.28;;;23.10;1.00;;;;;;7354589;19;20014;-71
2023/08/10 10:42:26;;;;;;;4.35;2.72;;;23.30;1.00;;;;;;7373495;19;20014;-71
2023/08/10 10:45:14;;;;;;;4.25;2.42;;;23.60;1.00;;;;;;7374256;19;20023;-72
2023/08/10 10:47:50;;;;;;;3.00;2.50;;;23.80;1.00;;;;;;7069862;19;2004651;-71
2023/08/10 10:50:22;;;;;;;3.92;3.00;;;23.70;1.00;;;;;;7376469;19;20018;-71
2023/08/10 10:52:54;;;;;;;3.63;2.50;;;22.70;1.00;;;;;;7376638;19;20014;-70
2023/08/10 10:55:25;;;;;;;4.82;2.97;;;22.50;1.00;;;;;;7375418;19;20006;-70
2023/08/10 10:57:55;;;;;;;4.20;3.00;;;22.70;1.00;;;;;;7373320;19;20006;-70
2023/08/10 11:00:28;;;;;;;2.88;2.25;;;23.00;1.00;;;;;;7374548;19;20010;-71
2023/08/10 11:02:58;;;;;;;3.00;2.47;;;23.50;1.00;;;;;;7374964;19;20007;-70
2023/08/10 11:05:29;;;;;;;2.92;2.35;;;23.30;1.00;;;;;;7374055;19;20341;-70
2023/08/10 11:08:03;;;;;;;3.60;2.75;;;23.30;1.00;;;;;;7374572;19;20006;-70
2023/08/10 11:10:34;;;;;;;;;;;22.90;1.00;;;;;;7375350;19;20006;-71
2023/08/10 11:13:05;;;;;;;3.78;2.17;;;23.20;1.00;;;;;;7373897;19;19907;-70
2023/08/10 11:15:39;;;;;;;3.35;2.38;;;23.50;1.00;;;;;;7374376;19;20090;-70
2023/08/10 11:18:12;;;;;;;2.50;2.00;;;22.90;1.00;;;;;;7374000;19;20396;-71
2023/08/10 11:20:47;;;;;;;3.03;2.15;;;22.90;1.00;;;;;;7373736;19;20090;-71
2023/08/10 11:23:17;;;;;;;3.35;2.20;;;22.90;1.00;;;;;;7373258;19;20010;-71
2023/08/10 11:25:50;;;;;;;3.75;2.78;;;23.20;1.00;;;;;;7375789;19;20356;-69
2023/08/10 11:28:22;;;;;;;3.95;2.50;;;23.50;1.00;;;;;;7374119;19;20003;-71
2023/08/10 11:30:54;;;;;;;5.35;1.95;;;23.50;1.00;;;;;;7375023;19;20011;-72
2023/08/10 11:33:25;;;;;;;2.60;2.17;;;24.00;1.00;;;;;;7375577;19;20014;-71
2023/08/10 11:35:56;;;;;;;4.22;2.47;;;23.60;1.00;;;;;;7375600;19;20018;-70
2023/08/10 11:38:26;;;;;;;2.92;2.00;;;23.50;1.00;;;;;;7373395;19;20498;-71
2023/08/10 11:40:58;;;;;;;2.88;2.45;;;23.50;1.00;;;;;;7373642;19;20014;-71
2023/08/10 11:43:30;;;;;;;3.03;2.33;;;23.40;1.00;;;;;;7372630;19;20343;-70
2023/08/10 11:46:03;;;;;;;2.83;2.05;;;22.30;1.00;;;;;;7374692;19;20014;-71
2023/08/10 11:48:33;;;;;;;3.00;2.10;;;23.40;1.00;;;;;;7373327;19;20011;-71
2023/08/10 11:51:05;;;;;;;3.20;2.03;;;23.80;1.00;;;;;;7371985;19;20420;-73
2023/08/10 11:53:41;;;;;;;3.67;2.25;;;24.00;1.00;;;;;;7373714;19;20018;-72
2023/08/10 11:56:12;;;;;;;3.63;2.22;;;24.30;1.00;;;;;;7373563;19;20014;-72
2023/08/10 11:58:42;;;;;;;2.80;1.95;;;24.10;1.00;;;;;;7373970;19;20006;-70
2023/08/10 12:01:18;;;;;;;6.60;2.97;;;24.10;1.00;;;;;;7371933;19;20412;-71
2023/08/10 12:03:51;;;;;;;2.45;1.83;;;23.50;1.00;;;;;;7373995;19;20101;-72
2023/08/10 12:06:26;;;;;;;4.78;3.58;;;24.10;1.00;;;;;;7373629;19;20032;-73
2023/08/10 12:08:56;;;;;;;4.00;2.58;;;24.30;1.00;;;;;;7373751;19;20011;-71
2023/08/10 12:11:26;;;;;;;2.80;1.75;;;24.50;1.00;;;;;;7372570;19;20018;-71
2023/08/10 12:13:57;;;;;;;3.45;1.90;;;24.40;1.00;;;;;;7373936;19;20014;-71
2023/08/10 12:16:29;;;;;;;3.53;2.05;;;24.50;1.00;;;;;;7373422;19;20507;-71
2023/08/10 12:18:59;;;;;;;2.97;2.10;;;24.30;1.00;;;;;;7371811;19;20082;-73
2023/08/10 12:21:29;;;;;;;3.10;1.88;;;24.40;1.00;;;;;;7352203;19;20014;-72
2023/08/10 12:23:59;;;;;;;2.70;1.98;;;23.90;1.00;;;;;;7372120;19;20010;-71
2023/08/10 12:26:29;;;;;;;2.45;2.00;;;24.00;1.00;;;;;;7372149;19;20447;-72
2023/08/10 12:29:01;;;;;;;4.47;2.35;;;24.00;1.00;;;;;;7372734;19;20010;-70
2023/08/10 12:31:34;;;;;;;2.45;2.08;;;24.30;1.00;;;;;;7371531;19;20042;-71
2023/08/10 12:34:04;;;;;;;3.25;1.90;;;24.80;1.00;;;;;;7371436;19;20018;-71
2023/08/10 12:36:34;;;;;;;3.08;2.22;;;24.80;1.00;;;;;;7371931;19;20685;-71
2023/08/10 12:39:04;;;;;;;2.50;1.65;;;24.50;1.00;;;;;;7371813;19;20003;-71
2023/08/10 12:41:34;;;;;;;3.55;2.05;;;24.70;1.00;;;;;;7373031;19;20018;-71
2023/08/10 12:44:04;;;;;;;2.58;1.75;;;24.50;1.00;;;;;;7371922;19;20086;-71
2023/08/10 12:46:37;;;;;;;1.83;1.70;;;24.50;1.00;;;;;;7372383;19;20499;-71
2023/08/10 12:49:07;;;;;;;3.45;1.95;;;24.10;1.00;;;;;;7370182;19;20551;-72
2023/08/10 12:51:37;;;;;;;2.75;1.65;;;24.40;1.00;;;;;;7369412;19;20527;-72
2023/08/10 12:54:07;;;;;;;5.97;1.90;;;24.30;1.00;;;;;;7367614;19;20044;-72
2023/08/10 12:56:37;;;;;;;2.25;1.65;;;24.80;1.00;;;;;;7370452;19;20398;-71
2023/08/10 12:59:07;;;;;;;2.97;1.60;;;24.80;1.00;;;;;;7369601;19;20077;-71
2023/08/10 13:01:41;;;;;;;2.67;1.90;;;24.90;1.00;;;;;;7368187;19;20014;-71
2023/08/10 13:04:11;;;;;;;3.72;1.80;;;24.90;1.00;;;;;;7368853;19;20108;-73
2023/08/10 13:06:41;;;;;;;2.35;1.77;;;25.20;1.00;;;;;;7370433;19;20070;-71
2023/08/10 13:09:11;;;;;;;2.10;1.80;;;24.90;1.00;;;;;;7368981;19;20014;-72
2023/08/10 13:11:41;;;;;;;2.50;1.77;;;25.10;1.00;;;;;;7371165;19;20077;-70
2023/08/10 13:14:11;;;;;;;2.80;1.73;;;24.70;1.00;;;;;;7369132;19;20019;-71